Bookmark and Share
Track history (hours):
 

Bow Plata

Last reported at 2013-Nov-12 10:17 UTC. Time now 2014-Apr-17 12:44 UTC.
Position N 51°54' E 004°17'.
Warning: this ship's position is months out of date.

Length 141 m; draft 7.1 m.

Type: Tanker. MMSI: 351928000.

NotesDate/timePositionNaut miles runAvg speedWind from/ knotsBaromVisibWave heightAir tempDewpointWater temp
2013-Nov-12 10:17N 51°54' E 004°17'0 0.0
2013-Nov-12 08:29N 51°54' E 004°17'0 0.0
2013-Nov-12 06:29N 51°54' E 004°17'0 0.0
2013-Nov-12 05:32N 51°54' E 004°17'0 0.0
2013-Nov-12 04:29N 51°54' E 004°17'0 0.0
2013-Nov-12 03:17N 51°54' E 004°17'0 0.0
2013-Nov-12 02:29N 51°54' E 004°17'0 0.0
2013-Nov-12 01:17N 51°54' E 004°17'0 0.0
2013-Nov-12 00:32N 51°54' E 004°17'0 0.0
2013-Nov-11 23:32N 51°54' E 004°17'0 0.0
2013-Nov-11 22:29N 51°54' E 004°17'0 0.0
2013-Nov-11 21:32N 51°54' E 004°17'0 0.0
2013-Nov-11 20:29N 51°54' E 004°17'0 0.0
2013-Nov-11 18:29N 51°54' E 004°17'0 0.0
2013-Nov-11 17:17N 51°54' E 004°17'0 0.0
2013-Nov-11 08:05N 51°54' E 004°17'0 0.0
2013-Nov-11 07:05N 51°54' E 004°17'0 0.0
2013-Nov-11 06:23N 51°54' E 004°17'0 0.0
2013-Nov-11 02:29N 51°54' E 004°17'0 0.0
2013-Nov-11 01:29N 51°54' E 004°17'0 0.0
2013-Nov-11 00:23N 51°54' E 004°17'1 0.6
2013-Nov-10 23:30N 51°53' E 004°18'  
2013-Nov-07 13:13N 51°54' E 004°21'2 3.2
2013-Nov-07 12:32N 51°53' E 004°18'  
2013-Nov-05 05:15N 51°53' E 004°17'1 1.0
2013-Nov-05 04:33N 51°54' E 004°18'8 7.5
2013-Nov-05 03:33N 51°58' E 004°08'1111.1
2013-Nov-05 02:33N 51°60' E 003°50'5 3.7
2013-Nov-05 01:16N 51°57' E 003°45'1 1.2
2013-Nov-05 00:32N 51°56' E 003°46'0 0.1
2013-Nov-04 23:32N 51°56' E 003°46'0 0.0
2013-Nov-04 21:11N 51°56' E 003°46'0 0.0
2013-Nov-04 19:17N 51°56' E 003°46'0 0.1
2013-Nov-04 18:14N 51°56' E 003°46'0 0.0
2013-Nov-04 17:14N 51°56' E 003°46'0 0.1
2013-Nov-04 16:29N 51°56' E 003°46'0 0.1
2013-Nov-04 15:32N 51°56' E 003°46'0 0.0
2013-Nov-04 07:05N 51°56' E 003°46'0 0.2
2013-Nov-04 06:29N 51°56' E 003°46'0 0.1
2013-Nov-04 05:17N 51°56' E 003°46'0 0.0
2013-Nov-04 04:20N 51°56' E 003°46'0 0.0
2013-Nov-04 02:32N 51°56' E 003°46'0 0.0
2013-Nov-04 01:32N 51°56' E 003°46'0 0.0
2013-Nov-04 00:29N 51°56' E 003°46'0 0.0
2013-Nov-03 23:29N 51°56' E 003°46'0 0.1
2013-Nov-03 21:20N 51°56' E 003°46'0 0.0
2013-Nov-03 20:29N 51°56' E 003°46'0 0.1
2013-Nov-03 19:11N 51°56' E 003°46'0 0.0
2013-Nov-03 18:29N 51°56' E 003°46'0 0.0
2013-Nov-03 17:32N 51°56' E 003°46'0 0.0
2013-Nov-03 16:32N 51°56' E 003°46'0 0.0
2013-Nov-03 13:17N 51°56' E 003°46'0 0.0
2013-Nov-03 10:14N 51°56' E 003°46'0 0.1
2013-Nov-03 09:26N 51°56' E 003°46'0 0.1
2013-Nov-03 08:32N 51°56' E 003°46'0 0.1
2013-Nov-03 06:33N 51°56' E 003°46'1 0.2
2013-Nov-03 03:31N 51°56' E 003°47'0 0.0
2013-Nov-03 01:13N 51°56' E 003°47'0 0.0
2013-Nov-03 00:28N 51°56' E 003°47'1 0.6
2013-Nov-02 23:22N 51°56' E 003°46'0 0.0
2013-Nov-02 22:19N 51°56' E 003°46'0 0.0
2013-Nov-02 16:13N 51°56' E 003°46'0 0.0
2013-Nov-02 15:31N 51°56' E 003°46'0 0.0
2013-Nov-02 13:25N 51°56' E 003°46'0 0.0
2013-Nov-02 12:25N 51°56' E 003°46'0 0.0
2013-Nov-02 11:16N 51°56' E 003°46'  

Dump ship's entire track history

sailing weather and tide predictions

Bow Plata — 3EGK9 — position and weather